createdAt,value
2023-02-23T00:00:52.005Z,5.28
2023-02-23T00:03:57.115Z,5.25
2023-02-23T00:06:59.750Z,5.17
2023-02-23T00:10:02.385Z,5.14
2023-02-23T00:13:05.317Z,5.14
2023-02-23T00:16:12.781Z,5.25
2023-02-23T00:19:15.663Z,5.31
2023-02-23T00:22:18.632Z,5.35
2023-02-23T00:25:21.883Z,5.32
2023-02-23T00:28:24.559Z,5.29
2023-02-23T00:31:27.607Z,5.29
2023-02-23T00:34:30.206Z,5.20
2023-02-23T00:37:32.731Z,5.20
2023-02-23T00:40:35.557Z,5.29
2023-02-23T00:43:47.568Z,5.20
2023-02-23T00:46:52.525Z,5.17
2023-02-23T00:49:55.224Z,5.20
2023-02-23T00:52:59.841Z,5.26
2023-02-23T00:56:05.525Z,5.23
2023-02-23T00:59:08.369Z,5.21
2023-02-23T01:02:11.078Z,5.25
2023-02-23T01:05:13.998Z,5.28
2023-02-23T01:08:17.363Z,5.30
2023-02-23T01:11:23.003Z,5.29
2023-02-23T01:14:25.567Z,5.28
2023-02-23T01:17:30.746Z,5.33
2023-02-23T01:20:36.443Z,5.30
2023-02-23T01:23:38.988Z,5.25
2023-02-23T01:26:44.828Z,5.20
2023-02-23T01:29:47.482Z,5.21
2023-02-23T01:32:51.175Z,5.20
2023-02-23T01:36:00.444Z,5.16
2023-02-23T01:39:06.921Z,5.24
2023-02-23T01:42:14.356Z,5.30
2023-02-23T01:45:19.871Z,5.29
2023-02-23T01:48:42.930Z,5.32
2023-02-23T01:52:11.256Z,5.37
2023-02-23T01:55:14.204Z,5.33
2023-02-23T01:58:20.020Z,5.34
2023-02-23T02:01:24.066Z,5.33
2023-02-23T02:04:29.365Z,5.33
2023-02-23T02:07:35.605Z,5.33
2023-02-23T02:10:45.020Z,5.33
2023-02-23T02:13:47.708Z,5.33
2023-02-23T02:16:53.225Z,5.33
2023-02-23T02:20:26.787Z,5.35
2023-02-23T02:24:14.135Z,5.34
2023-02-23T02:27:35.616Z,5.38
2023-02-23T02:30:53.490Z,5.42
2023-02-23T02:34:09.661Z,5.39
2023-02-23T02:37:15.463Z,5.36
2023-02-23T02:40:28.978Z,5.34
2023-02-23T02:43:55.635Z,5.34
2023-02-23T02:47:05.208Z,5.36
2023-02-23T02:50:22.229Z,5.37
2023-02-23T02:53:42.340Z,5.46
2023-02-23T02:56:45.453Z,5.42
2023-02-23T03:00:08.204Z,5.40
2023-02-23T03:03:49.776Z,5.34
2023-02-23T03:07:27.524Z,5.37
2023-02-23T03:11:02.982Z,5.27
2023-02-23T03:14:30.442Z,5.32
2023-02-23T03:18:33.417Z,5.30
2023-02-23T03:22:13.562Z,5.27
2023-02-23T03:25:38.982Z,5.33
2023-02-23T03:29:23.656Z,5.36
2023-02-23T03:32:50.474Z,5.35
2023-02-23T03:36:25.336Z,5.39
2023-02-23T03:40:00.548Z,5.39
2023-02-23T03:43:26.560Z,5.31
2023-02-23T03:46:48.561Z,5.25
2023-02-23T03:50:09.856Z,5.26
2023-02-23T03:53:33.314Z,5.27
2023-02-23T03:56:56.089Z,5.29
2023-02-23T04:00:19.438Z,5.30
2023-02-23T04:03:41.314Z,5.39
2023-02-23T04:07:04.637Z,5.37
2023-02-23T04:10:27.397Z,5.35
2023-02-23T04:13:31.098Z,5.36
2023-02-23T04:16:33.968Z,5.36
2023-02-23T04:19:36.575Z,5.38
2023-02-23T04:22:39.208Z,5.32
2023-02-23T04:25:42.192Z,5.29
2023-02-23T04:28:44.838Z,5.30
2023-02-23T04:31:48.912Z,5.34
2023-02-23T04:34:51.552Z,5.34
2023-02-23T04:37:54.063Z,5.35
2023-02-23T04:40:56.919Z,5.33
2023-02-23T04:43:59.489Z,5.34
2023-02-23T04:47:02.320Z,5.34
2023-02-23T04:50:05.475Z,5.34
2023-02-23T04:53:08.228Z,5.35
2023-02-23T04:56:11.632Z,5.31
2023-02-23T04:59:14.432Z,5.34
2023-02-23T05:02:17.000Z,5.35
2023-02-23T05:05:19.972Z,5.32
2023-02-23T05:08:22.530Z,5.38
2023-02-23T05:11:26.786Z,5.38
2023-02-23T05:14:29.718Z,5.34
2023-02-23T05:17:32.537Z,5.29
2023-02-23T05:20:35.113Z,5.26
2023-02-23T05:23:38.304Z,5.29
2023-02-23T05:26:41.292Z,5.30
2023-02-23T05:29:44.423Z,5.35
2023-02-23T05:32:47.086Z,5.38
2023-02-23T05:35:49.649Z,5.32
2023-02-23T05:38:52.262Z,5.29
2023-02-23T05:41:55.087Z,5.27
2023-02-23T05:44:57.820Z,5.31
2023-02-23T05:48:00.425Z,5.37
2023-02-23T05:51:07.929Z,5.40
2023-02-23T05:54:10.823Z,5.44
2023-02-23T05:57:14.028Z,5.39
2023-02-23T06:00:17.012Z,5.38
2023-02-23T06:03:20.283Z,5.44
2023-02-23T06:06:24.323Z,5.49
2023-02-23T06:09:27.041Z,5.55
2023-02-23T06:12:29.634Z,5.52
2023-02-23T06:15:32.482Z,5.52
2023-02-23T06:18:35.043Z,5.58
2023-02-23T06:21:37.618Z,5.52
2023-02-23T06:24:40.360Z,5.56
2023-02-23T06:27:44.192Z,5.55
2023-02-23T06:30:47.213Z,5.52
2023-02-23T06:33:49.888Z,5.48
2023-02-23T06:36:55.076Z,5.57
2023-02-23T06:39:58.068Z,5.59
2023-02-23T06:43:00.833Z,5.64
2023-02-23T06:46:06.340Z,5.67
2023-02-23T06:49:12.279Z,5.79
2023-02-23T06:52:14.916Z,5.81
2023-02-23T06:55:17.860Z,5.78
2023-02-23T06:58:20.517Z,5.65
2023-02-23T07:01:23.444Z,5.49
2023-02-23T07:04:26.133Z,5.28
2023-02-23T07:07:28.847Z,5.37
2023-02-23T07:10:31.507Z,5.24
2023-02-23T07:13:34.403Z,5.17
2023-02-23T07:16:37.104Z,5.15
2023-02-23T07:19:39.776Z,5.51
2023-02-23T07:22:42.828Z,5.53
2023-02-23T07:25:45.849Z,5.43
2023-02-23T07:28:48.474Z,5.54
2023-02-23T07:31:51.297Z,5.48
2023-02-23T07:34:54.217Z,5.59
2023-02-23T07:37:56.860Z,5.64
2023-02-23T07:40:59.781Z,5.74
2023-02-23T07:44:02.848Z,5.74
2023-02-23T07:47:06.457Z,5.72
2023-02-23T07:50:10.516Z,5.77
2023-02-23T07:53:13.353Z,5.80
2023-02-23T07:56:16.224Z,5.98
2023-02-23T07:59:21.865Z,6.08
2023-02-23T08:02:25.734Z,6.11
2023-02-23T08:05:31.508Z,6.27
2023-02-23T08:08:35.624Z,6.35
2023-02-23T08:11:38.827Z,6.47
2023-02-23T08:14:44.260Z,6.76
2023-02-23T08:17:46.915Z,6.93
2023-02-23T08:20:49.585Z,7.00
2023-02-23T08:23:52.340Z,7.17
2023-02-23T08:26:55.159Z,7.31
2023-02-23T08:29:58.035Z,7.31
2023-02-23T08:33:01.748Z,7.33
2023-02-23T08:36:04.953Z,7.37
2023-02-23T08:39:10.145Z,7.43
2023-02-23T08:42:12.792Z,7.53
2023-02-23T08:45:15.418Z,7.66
2023-02-23T08:48:18.004Z,7.69
2023-02-23T08:51:20.828Z,7.87
2023-02-23T08:54:23.843Z,7.84
2023-02-23T08:57:27.345Z,7.98
2023-02-23T09:00:31.590Z,8.16
2023-02-23T09:03:38.818Z,8.39
2023-02-23T09:06:46.174Z,8.45
2023-02-23T09:09:54.873Z,8.57
2023-02-23T09:12:57.553Z,8.53
2023-02-23T09:16:00.317Z,8.66
2023-02-23T09:19:04.622Z,8.74
2023-02-23T09:22:08.233Z,8.69
2023-02-23T09:25:13.092Z,8.84
2023-02-23T09:28:18.280Z,8.98
2023-02-23T09:31:23.245Z,8.82
2023-02-23T09:34:26.497Z,8.98
2023-02-23T09:37:29.193Z,9.02
2023-02-23T09:40:43.763Z,9.14
2023-02-23T09:43:54.416Z,9.19
2023-02-23T09:47:26.205Z,9.24
2023-02-23T09:50:31.224Z,9.52
2023-02-23T09:53:43.663Z,9.72
2023-02-23T09:56:51.539Z,9.37
2023-02-23T09:59:54.085Z,9.63
2023-02-23T10:03:11.892Z,9.47
2023-02-23T10:06:17.444Z,9.56
2023-02-23T10:09:48.128Z,9.58
2023-02-23T10:13:16.497Z,9.79
2023-02-23T10:16:22.345Z,9.45
2023-02-23T10:19:33.687Z,9.64
2023-02-23T10:22:36.479Z,9.88
2023-02-23T10:25:43.879Z,10.22
2023-02-23T10:28:46.998Z,10.03
2023-02-23T10:31:54.679Z,10.22
2023-02-23T10:34:57.517Z,10.30
2023-02-23T10:38:01.723Z,10.25
2023-02-23T10:41:04.467Z,9.92
2023-02-23T10:44:17.421Z,9.98
2023-02-23T10:47:22.378Z,10.18
2023-02-23T10:50:29.269Z,10.14
2023-02-23T10:53:36.942Z,9.97
2023-02-23T10:56:44.957Z,9.87
2023-02-23T11:00:02.984Z,10.04
2023-02-23T11:03:19.520Z,10.42
2023-02-23T11:06:39.793Z,10.45
2023-02-23T11:09:47.596Z,10.53
2023-02-23T11:12:51.758Z,10.38
2023-02-23T11:16:10.543Z,10.48
2023-02-23T11:19:24.217Z,10.67
2023-02-23T11:22:31.815Z,10.73
2023-02-23T11:25:34.405Z,10.68
2023-02-23T11:28:40.873Z,10.80
2023-02-23T11:31:49.346Z,11.08
2023-02-23T11:35:12.287Z,10.98
2023-02-23T11:38:29.419Z,10.71
2023-02-23T11:41:35.448Z,10.58
2023-02-23T11:44:38.092Z,10.57
2023-02-23T11:47:44.606Z,10.53
2023-02-23T11:50:48.940Z,10.80
2023-02-23T11:53:52.078Z,10.89
2023-02-23T11:56:58.476Z,10.99
2023-02-23T12:00:09.635Z,10.67
2023-02-23T12:03:22.369Z,10.65
2023-02-23T12:06:39.264Z,10.38
2023-02-23T12:09:42.478Z,10.37
2023-02-23T12:12:51.339Z,10.44
2023-02-23T12:16:00.548Z,10.20
2023-02-23T12:19:11.640Z,10.15
2023-02-23T12:22:20.221Z,10.35
2023-02-23T12:25:28.840Z,10.17
2023-02-23T12:28:59.192Z,10.25
2023-02-23T12:32:08.616Z,10.25
2023-02-23T12:35:27.892Z,10.12
2023-02-23T12:39:00.154Z,10.05
2023-02-23T12:42:25.241Z,10.27
2023-02-23T12:45:50.787Z,10.35
2023-02-23T12:49:30.508Z,10.30
2023-02-23T12:52:38.322Z,10.35
2023-02-23T12:55:55.492Z,10.10
2023-02-23T12:59:03.993Z,10.21
2023-02-23T13:02:32.116Z,10.27
2023-02-23T13:05:41.739Z,10.43
2023-02-23T13:09:01.322Z,10.74
2023-02-23T13:12:13.068Z,10.85
2023-02-23T13:15:27.199Z,10.80
2023-02-23T13:18:36.074Z,10.91
2023-02-23T13:22:16.137Z,10.88
2023-02-23T13:25:25.098Z,11.17
2023-02-23T13:28:53.996Z,11.01
2023-02-23T13:31:56.852Z,10.72
2023-02-23T13:35:02.501Z,10.99
2023-02-23T13:38:17.523Z,11.08
2023-02-23T13:41:50.541Z,10.96
2023-02-23T13:45:02.274Z,11.04
2023-02-23T13:48:33.017Z,10.94
2023-02-23T13:51:45.955Z,10.81
2023-02-23T13:54:56.715Z,10.83
2023-02-23T13:58:07.383Z,10.74
2023-02-23T14:01:12.576Z,10.66
2023-02-23T14:04:21.136Z,10.53
2023-02-23T14:07:31.588Z,10.69
2023-02-23T14:10:42.891Z,10.51
2023-02-23T14:13:59.803Z,10.57
2023-02-23T14:17:14.778Z,10.62
2023-02-23T14:20:30.059Z,10.38
2023-02-23T14:23:36.388Z,10.44
2023-02-23T14:26:42.590Z,10.40
2023-02-23T14:30:11.476Z,10.33
2023-02-23T14:33:52.524Z,10.26
2023-02-23T14:36:56.757Z,10.34
2023-02-23T14:40:23.653Z,10.19
2023-02-23T14:43:45.831Z,10.25
2023-02-23T14:46:57.597Z,10.24
2023-02-23T14:50:01.970Z,10.15
2023-02-23T14:53:07.080Z,10.11
2023-02-23T14:56:32.592Z,10.07
2023-02-23T14:59:42.793Z,10.23
2023-02-23T15:02:59.438Z,10.13
2023-02-23T15:06:02.378Z,10.07
2023-02-23T15:09:05.863Z,10.06
2023-02-23T15:12:29.233Z,9.88
2023-02-23T15:15:32.264Z,9.81
2023-02-23T15:18:41.621Z,9.68
2023-02-23T15:21:58.691Z,9.61
2023-02-23T15:25:03.900Z,9.71
2023-02-23T15:28:28.354Z,9.65
2023-02-23T15:31:32.094Z,9.59
2023-02-23T15:34:35.157Z,9.62
2023-02-23T15:37:51.926Z,9.53
2023-02-23T15:41:05.795Z,9.55
2023-02-23T15:44:17.523Z,9.43
2023-02-23T15:47:22.961Z,9.43
2023-02-23T15:50:36.755Z,9.37
2023-02-23T15:53:40.328Z,9.30
2023-02-23T15:56:47.046Z,9.28
2023-02-23T15:59:51.434Z,9.24
2023-02-23T16:02:57.080Z,9.18
2023-02-23T16:06:04.189Z,9.05
2023-02-23T16:09:26.703Z,9.04
2023-02-23T16:12:32.889Z,9.10
2023-02-23T16:15:38.515Z,9.02
2023-02-23T16:18:43.105Z,8.89
2023-02-23T16:21:54.083Z,8.94
2023-02-23T16:25:03.844Z,8.87
2023-02-23T16:28:14.811Z,8.83
2023-02-23T16:31:26.064Z,8.72
2023-02-23T16:34:36.065Z,8.65
2023-02-23T16:37:59.753Z,8.74
2023-02-23T16:41:26.379Z,8.76
2023-02-23T16:44:43.052Z,8.77
2023-02-23T16:47:50.165Z,8.70
2023-02-23T16:50:53.088Z,8.66
2023-02-23T16:53:55.736Z,8.64
2023-02-23T16:56:58.385Z,8.56
2023-02-23T17:00:01.307Z,8.54
2023-02-23T17:03:07.061Z,8.52
2023-02-23T17:06:09.763Z,8.47
2023-02-23T17:09:13.083Z,8.53
2023-02-23T17:12:21.866Z,8.55
2023-02-23T17:15:27.625Z,8.44
2023-02-23T17:18:32.766Z,8.40
2023-02-23T17:21:36.048Z,8.44
2023-02-23T17:24:40.502Z,8.36
2023-02-23T17:27:43.405Z,8.33
2023-02-23T17:30:47.765Z,8.32
2023-02-23T17:33:50.449Z,8.33
2023-02-23T17:36:53.409Z,8.32
2023-02-23T17:39:56.277Z,8.28
2023-02-23T17:43:00.688Z,8.26
2023-02-23T17:46:05.955Z,8.26
2023-02-23T17:49:09.690Z,8.32
2023-02-23T17:52:12.925Z,8.25
2023-02-23T17:55:16.804Z,8.20
2023-02-23T17:58:19.972Z,8.22
2023-02-23T18:01:23.240Z,8.21
2023-02-23T18:04:26.652Z,8.32
2023-02-23T18:07:29.443Z,8.29
2023-02-23T18:10:32.310Z,8.32
2023-02-23T18:13:35.761Z,8.32
2023-02-23T18:16:38.879Z,8.31
2023-02-23T18:19:42.139Z,8.21
2023-02-23T18:22:45.928Z,8.07
2023-02-23T18:25:49.407Z,8.06
2023-02-23T18:28:52.518Z,7.98
2023-02-23T18:31:57.978Z,7.94
2023-02-23T18:35:01.060Z,7.84
2023-02-23T18:38:11.668Z,7.88
2023-02-23T18:41:16.997Z,7.90
2023-02-23T18:44:22.445Z,7.87
2023-02-23T18:47:26.012Z,7.84
2023-02-23T18:50:29.391Z,7.89
2023-02-23T18:53:37.684Z,7.80
2023-02-23T18:56:41.265Z,7.80
2023-02-23T18:59:46.541Z,7.77
2023-02-23T19:02:49.927Z,7.83
2023-02-23T19:05:56.392Z,7.79
2023-02-23T19:09:03.639Z,7.72
2023-02-23T19:12:06.732Z,7.69
2023-02-23T19:15:10.535Z,7.63
2023-02-23T19:18:16.089Z,7.54
2023-02-23T19:21:24.388Z,7.36
2023-02-23T19:24:27.225Z,7.36
2023-02-23T19:27:30.046Z,7.35
2023-02-23T19:30:33.018Z,7.36
2023-02-23T19:33:38.622Z,7.08
2023-02-23T19:36:41.677Z,7.15
2023-02-23T19:39:46.937Z,7.11
2023-02-23T19:42:51.289Z,7.23
2023-02-23T19:45:55.148Z,7.04
2023-02-23T19:48:58.077Z,7.14
2023-02-23T19:52:01.140Z,7.18
2023-02-23T19:55:04.418Z,7.13
2023-02-23T19:58:07.348Z,7.05
2023-02-23T20:01:12.528Z,7.01
2023-02-23T20:04:15.393Z,7.05
2023-02-23T20:07:19.108Z,7.13
2023-02-23T20:10:25.992Z,7.12
2023-02-23T20:13:28.781Z,7.03
2023-02-23T20:16:32.257Z,6.90
2023-02-23T20:19:35.422Z,6.90
2023-02-23T20:22:42.311Z,6.79
2023-02-23T20:25:45.008Z,6.82
2023-02-23T20:28:50.323Z,6.82
2023-02-23T20:31:53.247Z,6.77
2023-02-23T20:35:00.818Z,6.84
2023-02-23T20:38:05.011Z,6.90
2023-02-23T20:41:08.194Z,6.98
2023-02-23T20:44:12.392Z,6.94
2023-02-23T20:47:15.630Z,7.06
2023-02-23T20:50:19.457Z,7.01
2023-02-23T20:53:23.640Z,7.09
2023-02-23T20:56:32.943Z,7.08
2023-02-23T20:59:36.777Z,7.08
2023-02-23T21:02:41.273Z,7.02
2023-02-23T21:05:43.982Z,7.12
2023-02-23T21:08:49.161Z,7.06
2023-02-23T21:11:51.872Z,7.15
2023-02-23T21:14:54.815Z,7.12
2023-02-23T21:17:58.669Z,7.14
2023-02-23T21:21:09.650Z,7.12
2023-02-23T21:24:13.570Z,7.13
2023-02-23T21:27:16.305Z,7.02
2023-02-23T21:30:20.654Z,7.06
2023-02-23T21:33:23.321Z,7.07
2023-02-23T21:36:26.187Z,7.11
2023-02-23T21:39:29.680Z,7.12
2023-02-23T21:42:32.325Z,7.12
2023-02-23T21:45:35.581Z,7.11
2023-02-23T21:48:38.245Z,7.02
2023-02-23T21:51:41.049Z,7.09
2023-02-23T21:54:50.219Z,7.03
2023-02-23T21:57:53.123Z,6.85
2023-02-23T22:00:56.070Z,6.72
2023-02-23T22:03:59.349Z,6.68
2023-02-23T22:07:02.418Z,6.66
2023-02-23T22:10:06.819Z,6.61
2023-02-23T22:13:10.420Z,6.60
2023-02-23T22:16:15.085Z,6.56
2023-02-23T22:19:18.488Z,6.43
2023-02-23T22:22:21.161Z,6.43
2023-02-23T22:25:25.336Z,6.40
2023-02-23T22:28:28.911Z,6.47
2023-02-23T22:31:31.854Z,6.59
2023-02-23T22:34:34.528Z,6.58
2023-02-23T22:37:37.351Z,6.71
2023-02-23T22:40:42.787Z,6.77
2023-02-23T22:43:46.749Z,6.83
2023-02-23T22:46:49.567Z,6.85
2023-02-23T22:49:52.263Z,6.85
2023-02-23T22:52:55.776Z,6.86
2023-02-23T22:55:58.446Z,6.89
2023-02-23T22:59:06.195Z,6.91
2023-02-23T23:02:08.941Z,6.85
2023-02-23T23:05:13.698Z,6.91
2023-02-23T23:08:16.381Z,6.74
2023-02-23T23:11:26.160Z,6.77
2023-02-23T23:14:28.749Z,6.79
2023-02-23T23:17:32.454Z,6.80
2023-02-23T23:20:35.052Z,6.76
2023-02-23T23:23:37.671Z,6.78
2023-02-23T23:26:40.884Z,6.77
2023-02-23T23:29:46.949Z,6.75
2023-02-23T23:32:49.628Z,6.71
2023-02-23T23:35:52.450Z,6.82
2023-02-23T23:38:56.676Z,6.88
2023-02-23T23:42:02.001Z,6.85
2023-02-23T23:45:09.803Z,6.80
2023-02-23T23:48:12.603Z,6.70
2023-02-23T23:51:16.055Z,6.71
2023-02-23T23:54:39.440Z,6.76
2023-02-23T23:57:42.487Z,6.77
